Aviation Digital Data Service (ADDS)

Output produced by TAFs form (1002 UTC 23 April 2017)
found at http://www.aviationweather.gov/adds/tafs/
 
METAR text: RJOB 230900Z 14004KT 100V170 9999 FEW035 16/02 Q1017
Conditions at: RJOB (OKAYAMA AIRPORT , JP) observed 0900 UTC 23 April 2017
Temperature: 16.0°C (61°F)
Dewpoint: 2.0°C (36°F) [RH = 39%]
Pressure (altimeter): 30.03 inches Hg (1017.0 mb)
Winds: from the SE (140 degrees) at 5 MPH (4 knots; 2.1 m/s)
Visibility: 6 or more miles (10+ km)
Ceiling: at least 12,000 feet AGL
Clouds: few clouds at 3500 feet AGL
Weather: no significant weather observed at this time

Forecast for: RJOB (OKAYAMA AIRPORT , JP)
Text: TAF AMD RJOB 230654Z 2306/2412 17007KT CAVOK
Forecast period: 0600 to 0700 UTC 23 April 2017
Forecast type: FROM: standard forecast or significant change
Winds: from the S (170 degrees) at 8 MPH (7 knots; 3.6 m/s)
Visibility: 6 or more miles (10+ km)
Clouds: not forecast
Weather: NSW  (no significant weather)
Text: BECMG 2307/2309 06007KT
Forecast period: 0700 UTC 23 April 2017 to 1200 UTC 24 April 2017
Forecast type: BECOMING: Conditions expected to become as follows by 0900 UTC 23 April 2017
Winds: from the ENE (60 degrees) at 8 MPH (7 knots; 3.6 m/s)
Visibility: 6 or more miles (10+ km)
Weather: NSW  (no significant weather)